VTCC/CNX METAR and TAF weather

Enter ICAO airport designator
Station Type Date Time Source
VTCC METAR 2019/02/21 11:30 UTC NOAA

VTCC 211130Z VRB02KT 6000 NSC 30/12 Q1013 NOSIG


Station Type Date Time Source
VTCC Decoded METAR 2019/02/21 11:30 UTC NOAA

Chiang Mai, Thailand (VTCC) 18-47N 098-59E 314M
Feb 21, 2019 - 06:30 AM EST / 2019.02.21 1130 UTC
Wind: Variable at 2 MPH (2 KT):0
Visibility: 3 mile(s):0
Temperature: 86 F (30 C)
Dew Point: 53 F (12 C)
Relative Humidity: 33%
Pressure (altimeter): 29.91 in. Hg (1013 hPa)
ob: VTCC 211130Z VRB02KT 6000 NSC 30/12 Q1013 NOSIG
cycle: 11

Station Type Date Time Source
VTCC TAF 2019/02/21 12:39 UTC NOAA

TAF VTCC 211100Z 2112/2218 20005KT 8000 FEW035


Example: see airport list